createdAt,value
2023-05-19T00:04:05.344Z,11.20
2023-05-19T00:09:09.327Z,17.20
2023-05-19T00:14:11.415Z,16.50
2023-05-19T00:19:13.148Z,14.40
2023-05-19T00:24:14.832Z,16.50
2023-05-19T00:29:19.503Z,14.20
2023-05-19T00:34:21.351Z,16.20
2023-05-19T00:39:30.760Z,15.60
2023-05-19T00:44:32.552Z,14.60
2023-05-19T00:49:34.986Z,17.50
2023-05-19T00:54:36.841Z,12.70
2023-05-19T00:59:39.137Z,19.50
2023-05-19T01:04:43.610Z,12.50
2023-05-19T01:09:47.019Z,15.70
2023-05-19T01:14:48.938Z,18.80
2023-05-19T01:20:02.124Z,18.10
2023-05-19T01:25:25.650Z,17.30
2023-05-19T01:30:36.733Z,11.90
2023-05-19T01:35:40.332Z,13.70
2023-05-19T01:40:43.728Z,16.40
2023-05-19T01:45:47.021Z,11.40
2023-05-19T01:50:48.937Z,11.90
2023-05-19T01:55:54.084Z,13.60
2023-05-19T02:01:03.070Z,13.60
2023-05-19T02:06:10.964Z,12.50
2023-05-19T02:11:34.466Z,12.20
2023-05-19T02:16:37.455Z,13.70
2023-05-19T02:21:39.127Z,11.50
2023-05-19T02:26:41.267Z,13.60
2023-05-19T02:31:43.391Z,14.20
2023-05-19T02:36:45.370Z,9.80
2023-05-19T02:41:47.108Z,11.10
2023-05-19T02:46:49.035Z,9.20
2023-05-19T02:51:50.842Z,7.60
2023-05-19T02:56:52.639Z,9.30
2023-05-19T03:02:00.129Z,8.90
2023-05-19T03:07:02.227Z,8.30
2023-05-19T03:12:04.597Z,11.90
2023-05-19T03:17:10.240Z,13.20
2023-05-19T03:22:12.157Z,13.70
2023-05-19T03:27:13.914Z,8.20
2023-05-19T03:32:16.267Z,12.60
2023-05-19T03:37:18.257Z,12.80
2023-05-19T03:42:20.232Z,8.70
2023-05-19T03:47:22.116Z,14.70
2023-05-19T03:52:34.194Z,8.50
2023-05-19T04:02:46.354Z,16.10
2023-05-19T04:07:48.287Z,11.30
2023-05-19T04:12:50.131Z,15.60
2023-05-19T04:17:51.906Z,14.60
2023-05-19T04:22:53.665Z,16.00
2023-05-19T04:27:57.876Z,16.80
2023-05-19T04:33:01.241Z,12.60
2023-05-19T04:38:03.161Z,18.40
2023-05-19T04:43:07.330Z,15.70
2023-05-19T04:48:09.189Z,18.70
2023-05-19T04:53:11.491Z,12.20
2023-05-19T04:58:13.995Z,11.10
2023-05-19T05:03:16.489Z,13.80
2023-05-19T05:08:24.853Z,10.70
2023-05-19T05:13:28.653Z,14.80
2023-05-19T05:18:41.165Z,15.90
2023-05-19T05:23:45.415Z,10.60
2023-05-19T05:28:47.725Z,10.70
2023-05-19T05:33:49.910Z,16.60
2023-05-19T05:38:53.656Z,15.60
2023-05-19T05:43:55.455Z,15.60
2023-05-19T05:48:58.762Z,14.00
2023-05-19T05:54:02.909Z,14.30
2023-05-19T05:59:09.844Z,13.60
2023-05-19T06:04:12.208Z,11.10
2023-05-19T06:09:13.938Z,13.40
2023-05-19T06:14:15.976Z,12.90
2023-05-19T06:19:46.611Z,10.60
2023-05-19T06:24:48.532Z,9.00
2023-05-19T06:29:50.906Z,11.10
2023-05-19T06:34:55.743Z,9.60
2023-05-19T06:39:57.747Z,9.40
2023-05-19T06:44:59.988Z,10.30
2023-05-19T06:50:02.149Z,6.40
2023-05-19T06:55:06.846Z,9.40
2023-05-19T07:00:12.964Z,15.00
2023-05-19T07:05:16.894Z,12.50
2023-05-19T07:10:21.994Z,9.60
2023-05-19T07:15:24.869Z,19.40
2023-05-19T07:20:26.874Z,11.80
2023-05-19T07:25:30.731Z,12.10
2023-05-19T07:30:32.839Z,12.90
2023-05-19T07:35:35.016Z,10.50
2023-05-19T07:40:36.781Z,9.10
2023-05-19T07:45:39.240Z,10.60
2023-05-19T07:50:41.541Z,14.20
2023-05-19T07:55:43.301Z,11.70
2023-05-19T08:00:46.069Z,11.90
2023-05-19T08:05:48.064Z,15.00
2023-05-19T08:10:50.007Z,14.00
2023-05-19T08:15:51.982Z,11.40
2023-05-19T08:20:54.052Z,10.70
2023-05-19T08:25:56.373Z,10.30
2023-05-19T08:30:58.362Z,16.90
2023-05-19T08:36:00.202Z,12.80
2023-05-19T08:41:01.959Z,12.90
2023-05-19T08:46:04.088Z,13.00
2023-05-19T08:51:25.556Z,19.20
2023-05-19T08:56:28.317Z,13.80
2023-05-19T09:01:31.415Z,14.00
2023-05-19T09:06:33.541Z,13.70
2023-05-19T09:11:37.666Z,14.20
2023-05-19T09:16:40.322Z,13.20
2023-05-19T09:21:43.220Z,9.80
2023-05-19T09:26:46.220Z,11.80
2023-05-19T09:32:00.507Z,15.20
2023-05-19T09:37:02.595Z,12.20
2023-05-19T09:42:05.471Z,23.00
2023-05-19T09:47:09.805Z,14.00
2023-05-19T09:52:18.659Z,15.60
2023-05-19T09:57:27.106Z,11.90
2023-05-19T10:02:30.485Z,11.20
2023-05-19T10:07:33.280Z,10.30
2023-05-19T10:12:36.021Z,14.50
2023-05-19T10:17:43.378Z,12.80
2023-05-19T10:22:46.567Z,13.90
2023-05-19T10:27:54.363Z,16.60
2023-05-19T10:32:57.419Z,11.40
2023-05-19T10:43:11.902Z,15.30
2023-05-19T10:48:17.415Z,11.70
2023-05-19T10:53:22.648Z,10.50
2023-05-19T10:58:43.560Z,15.60
2023-05-19T11:03:53.230Z,11.90
2023-05-19T11:09:17.170Z,12.90
2023-05-19T11:14:22.980Z,14.20
2023-05-19T11:19:30.449Z,14.50
2023-05-19T11:24:46.391Z,13.80
2023-05-19T11:29:48.835Z,8.50
2023-05-19T11:34:51.588Z,12.10
2023-05-19T11:39:53.363Z,12.10
2023-05-19T11:44:56.271Z,11.80
2023-05-19T11:49:58.221Z,12.90
2023-05-19T11:55:01.610Z,14.80
2023-05-19T12:00:09.155Z,10.60
2023-05-19T12:05:22.644Z,15.50
2023-05-19T12:10:26.627Z,8.80
2023-05-19T12:15:28.396Z,13.40
2023-05-19T12:20:32.469Z,13.30
2023-05-19T12:25:34.668Z,11.40
2023-05-19T12:30:36.973Z,12.70
2023-05-19T12:35:38.956Z,11.10
2023-05-19T12:40:40.910Z,11.50
2023-05-19T12:45:42.807Z,10.90
2023-05-19T12:50:45.209Z,11.80
2023-05-19T12:55:47.142Z,12.10
2023-05-19T13:00:50.558Z,15.40
2023-05-19T13:05:52.750Z,12.80
2023-05-19T13:10:54.650Z,12.80
2023-05-19T13:15:56.606Z,12.10
2023-05-19T13:20:58.405Z,16.00
2023-05-19T13:26:00.288Z,17.30
2023-05-19T13:31:02.097Z,12.50
2023-05-19T13:36:04.547Z,14.60
2023-05-19T13:41:29.511Z,12.20
2023-05-19T13:46:44.106Z,11.80
2023-05-19T13:51:47.745Z,13.30
2023-05-19T13:56:50.325Z,13.50
2023-05-19T14:02:06.327Z,13.40
2023-05-19T14:07:10.311Z,16.90
2023-05-19T14:12:12.472Z,11.90
2023-05-19T14:38:57.043Z,11.80
2023-05-19T14:43:58.706Z,11.80
2023-05-19T14:49:00.679Z,14.80
2023-05-19T14:54:06.763Z,14.80
2023-05-19T14:59:08.561Z,14.30
2023-05-19T15:04:10.324Z,12.00
2023-05-19T15:09:14.624Z,16.30
2023-05-19T15:14:16.346Z,16.90
2023-05-19T15:19:28.326Z,19.30
2023-05-19T15:24:30.177Z,10.70
2023-05-19T15:29:31.888Z,15.20
2023-05-19T15:34:34.033Z,11.70
2023-05-19T15:39:36.147Z,15.40
2023-05-19T15:44:38.506Z,19.10
2023-05-19T15:49:40.230Z,15.30
2023-05-19T15:54:42.207Z,22.60
2023-05-19T15:59:44.004Z,25.20
2023-05-19T16:04:45.945Z,19.20
2023-05-19T16:09:47.671Z,19.60
2023-05-19T16:14:49.362Z,26.50
2023-05-19T16:19:51.142Z,25.10
2023-05-19T16:24:53.130Z,24.80
2023-05-19T16:29:55.314Z,22.20
2023-05-19T16:34:57.041Z,23.20
2023-05-19T16:39:58.800Z,31.70
2023-05-19T16:45:00.583Z,27.70
2023-05-19T16:50:03.144Z,29.90
2023-05-19T16:55:06.483Z,21.00
2023-05-19T17:00:09.249Z,22.90
2023-05-19T17:05:11.054Z,23.00
2023-05-19T17:10:13.918Z,20.70
2023-05-19T17:15:15.962Z,22.40
2023-05-19T17:20:17.788Z,21.70
2023-05-19T17:25:19.510Z,24.00
2023-05-19T17:30:21.354Z,21.20
2023-05-19T17:35:23.201Z,24.00
2023-05-19T17:40:24.923Z,26.70
2023-05-19T17:45:26.766Z,23.50
2023-05-19T17:50:28.621Z,21.00
2023-05-19T17:55:31.485Z,21.70
2023-05-19T18:00:33.850Z,22.60
2023-05-19T18:05:37.504Z,23.30
2023-05-19T18:10:41.602Z,22.80
2023-05-19T18:15:43.444Z,28.00
2023-05-19T18:20:45.814Z,22.90
2023-05-19T18:25:53.294Z,23.00
2023-05-19T18:31:03.707Z,22.90
2023-05-19T18:36:05.968Z,23.50
2023-05-19T18:41:08.528Z,20.50
2023-05-19T18:46:10.529Z,22.60
2023-05-19T18:51:15.850Z,19.40
2023-05-19T18:56:27.945Z,19.60
2023-05-19T19:01:30.003Z,17.50
2023-05-19T19:06:32.113Z,19.20
2023-05-19T19:11:33.823Z,25.20
2023-05-19T19:16:35.776Z,21.50
2023-05-19T19:21:38.211Z,17.40
2023-05-19T19:26:40.245Z,21.10
2023-05-19T19:31:42.176Z,22.40
2023-05-19T19:36:44.954Z,21.30
2023-05-19T19:41:46.677Z,16.90
2023-05-19T19:46:48.874Z,16.20
2023-05-19T19:51:50.641Z,25.10
2023-05-19T19:56:52.429Z,17.30
2023-05-19T20:01:54.388Z,20.90
2023-05-19T20:06:56.456Z,22.20
2023-05-19T20:11:58.473Z,21.80
2023-05-19T20:17:00.559Z,21.20
2023-05-19T20:22:02.640Z,23.40
2023-05-19T20:27:04.391Z,21.30
2023-05-19T20:32:06.803Z,19.80
2023-05-19T20:37:08.486Z,21.70
2023-05-19T20:42:11.303Z,18.40
2023-05-19T20:47:13.035Z,16.60
2023-05-19T20:52:18.619Z,15.80
2023-05-19T20:57:20.519Z,19.30
2023-05-19T21:02:22.210Z,20.90
2023-05-19T21:07:24.909Z,24.30
2023-05-19T21:12:33.650Z,28.70
2023-05-19T21:17:40.673Z,31.70
2023-05-19T21:22:42.527Z,26.70
2023-05-19T21:27:46.291Z,24.60
2023-05-19T21:32:48.055Z,25.50
2023-05-19T21:37:49.890Z,26.50
2023-05-19T21:42:52.190Z,24.20
2023-05-19T21:47:56.059Z,22.50
2023-05-19T21:52:59.919Z,23.40
2023-05-19T21:58:02.600Z,12.40
2023-05-19T22:03:04.841Z,23.70
2023-05-19T22:08:07.386Z,17.00
2023-05-19T22:13:09.125Z,28.40
2023-05-19T22:18:16.710Z,28.40
2023-05-19T22:23:18.394Z,18.40
2023-05-19T22:28:20.106Z,24.60
2023-05-19T22:33:21.809Z,24.80
2023-05-19T22:38:23.509Z,22.10
2023-05-19T22:43:25.614Z,29.00
2023-05-19T22:48:27.305Z,22.30
2023-05-19T22:53:28.993Z,26.00
2023-05-19T22:58:30.685Z,24.10
2023-05-19T23:03:32.394Z,36.80
2023-05-19T23:08:34.899Z,41.90
2023-05-19T23:13:56.879Z,36.40
2023-05-19T23:18:58.686Z,21.90
2023-05-19T23:24:00.705Z,25.80
2023-05-19T23:29:02.398Z,30.40
2023-05-19T23:34:04.097Z,32.90
2023-05-19T23:39:07.465Z,31.40
2023-05-19T23:44:09.999Z,27.80
2023-05-19T23:49:14.664Z,31.40
2023-05-19T23:54:16.402Z,24.40
2023-05-19T23:59:18.162Z,25.70
